Rodbyhavn, Denmark
Current Conditions -  °F | °C
As of 6:20 AM on Friday 31 Oct 2014 (Local Time) from ETNL Reporting Station
Haze Haze  
Wind Chill: 48°   Ceiling: 1600
Heat Index: 48°   Visibility: 2.5mi
Dew Point: 46°   Wind: 3mph
Humidity: 93%   Direction: 130°SE
Pressure: 30.24"   Gusts: NA
Location:  54.65°N, 11.35°E
Report Text: ETNL 310520Z 13003KT 4000 BR SCT006 BKN016 09/08 Q1024 GRN
Loading
Personal Weather Stations






























Interactive Weather Map
Tropical Storm Tracking
New forecast layout! Learn more

10-Day Weather Forecast

Advertisements
Track Severe Weather on mobile